createdAt,value
2018-05-11T00:00:01.438Z,11.40
2018-05-11T00:04:04.107Z,11.30
2018-05-11T00:08:06.704Z,11.30
2018-05-11T00:12:09.279Z,11.30
2018-05-11T00:16:11.858Z,11.20
2018-05-11T00:20:14.490Z,11.30
2018-05-11T00:24:17.020Z,11.20
2018-05-11T00:28:22.261Z,11.00
2018-05-11T00:32:24.775Z,10.90
2018-05-11T00:36:27.342Z,11.00
2018-05-11T00:40:31.791Z,11.00
2018-05-11T00:44:34.964Z,10.90
2018-05-11T00:48:38.246Z,10.60
2018-05-11T00:52:41.208Z,10.60
2018-05-11T00:56:44.497Z,10.60
2018-05-11T01:00:47.370Z,10.60
2018-05-11T01:04:50.814Z,10.70
2018-05-11T01:08:53.362Z,10.50
2018-05-11T01:12:57.868Z,10.50
2018-05-11T01:17:00.558Z,10.40
2018-05-11T01:21:03.064Z,10.30
2018-05-11T01:25:05.706Z,10.20
2018-05-11T01:29:08.231Z,10.30
2018-05-11T01:33:11.011Z,10.30
2018-05-11T01:37:13.538Z,10.20
2018-05-11T01:41:16.108Z,10.00
2018-05-11T01:45:18.652Z,10.00
2018-05-11T01:49:21.718Z,10.00
2018-05-11T01:53:24.244Z,10.10
2018-05-11T01:57:26.779Z,9.80
2018-05-11T02:01:29.349Z,9.70
2018-05-11T02:05:32.189Z,9.70
2018-05-11T02:09:34.716Z,9.80
2018-05-11T02:13:37.318Z,9.60
2018-05-11T02:17:39.870Z,9.40
2018-05-11T02:21:44.683Z,9.40
2018-05-11T02:25:47.245Z,9.60
2018-05-11T02:29:50.530Z,9.60
2018-05-11T02:33:58.708Z,9.60
2018-05-11T02:38:01.243Z,9.50
2018-05-11T02:42:03.783Z,9.50
2018-05-11T02:46:06.330Z,9.50
2018-05-11T02:50:08.836Z,9.60
2018-05-11T02:54:11.440Z,9.60
2018-05-11T02:58:13.956Z,9.60
2018-05-11T03:02:16.521Z,9.70
2018-05-11T03:06:19.971Z,9.90
2018-05-11T03:10:22.543Z,9.90
2018-05-11T03:14:25.052Z,9.90
2018-05-11T03:18:27.698Z,9.90
2018-05-11T03:22:30.126Z,10.00
2018-05-11T03:26:34.676Z,9.90
2018-05-11T03:30:37.182Z,9.90
2018-05-11T03:34:39.723Z,10.00
2018-05-11T03:38:42.233Z,9.90
2018-05-11T03:42:45.544Z,9.80
2018-05-11T03:46:48.834Z,9.90
2018-05-11T03:50:51.382Z,9.90
2018-05-11T03:54:53.901Z,9.90
2018-05-11T03:58:56.439Z,9.80
2018-05-11T04:03:10.852Z,9.70
2018-05-11T04:07:25.131Z,9.90
2018-05-11T04:11:27.657Z,9.90
2018-05-11T04:15:30.238Z,10.10
2018-05-11T04:19:32.756Z,10.20
2018-05-11T04:23:35.298Z,10.00
2018-05-11T04:27:37.812Z,10.10
2018-05-11T04:31:40.347Z,10.30
2018-05-11T04:35:42.859Z,10.20
2018-05-11T04:39:45.408Z,10.20
2018-05-11T04:43:47.927Z,10.20
2018-05-11T04:47:51.719Z,10.10
2018-05-11T04:51:54.250Z,10.10
2018-05-11T04:55:56.911Z,10.20
2018-05-11T04:59:59.418Z,10.30
2018-05-11T05:04:01.966Z,10.50
2018-05-11T05:08:05.253Z,10.40
2018-05-11T05:12:07.804Z,10.40
2018-05-11T05:16:10.328Z,10.40
2018-05-11T05:20:12.966Z,10.50
2018-05-11T05:24:15.478Z,10.60
2018-05-11T05:28:18.015Z,10.40
2018-05-11T05:32:21.527Z,10.60
2018-05-11T05:36:24.164Z,10.50
2018-05-11T05:40:26.685Z,10.60
2018-05-11T05:44:29.258Z,10.70
2018-05-11T05:48:32.536Z,10.90
2018-05-11T05:52:35.084Z,10.80
2018-05-11T05:56:38.450Z,11.50
2018-05-11T06:00:41.018Z,11.50
2018-05-11T06:04:44.405Z,12.00
2018-05-11T06:08:47.745Z,12.40
2018-05-11T06:12:50.254Z,12.30
2018-05-11T06:16:52.812Z,12.60
2018-05-11T06:20:55.381Z,12.80
2018-05-11T06:24:57.928Z,12.80
2018-05-11T06:29:00.475Z,12.90
2018-05-11T06:33:15.502Z,13.90
2018-05-11T06:37:18.027Z,15.50
2018-05-11T06:41:23.338Z,17.50
2018-05-11T06:45:25.851Z,17.50
2018-05-11T06:49:28.495Z,18.60
2018-05-11T06:53:31.127Z,18.80
2018-05-11T06:57:33.741Z,19.50
2018-05-11T07:01:36.305Z,19.80
2018-05-11T07:05:38.865Z,20.20
2018-05-11T07:09:41.382Z,20.40
2018-05-11T07:13:44.323Z,21.90
2018-05-11T07:17:46.852Z,21.80
2018-05-11T07:21:50.330Z,22.50
2018-05-11T07:25:53.356Z,22.20
2018-05-11T07:29:55.922Z,21.50
2018-05-11T07:33:58.452Z,21.70
2018-05-11T07:38:01.043Z,21.90
2018-05-11T07:42:03.602Z,23.00
2018-05-11T07:46:06.178Z,23.60
2018-05-11T07:50:08.717Z,23.40
2018-05-11T07:54:12.294Z,23.70
2018-05-11T07:58:15.814Z,24.50
2018-05-11T08:02:26.761Z,25.00
2018-05-11T08:06:30.050Z,24.10
2018-05-11T08:10:32.577Z,24.00
2018-05-11T08:14:35.395Z,24.70
2018-05-11T08:18:37.878Z,24.80
2018-05-11T08:22:40.393Z,24.90
2018-05-11T08:26:46.808Z,23.90
2018-05-11T08:30:50.183Z,24.00
2018-05-11T08:34:53.751Z,24.30
2018-05-11T08:38:56.274Z,24.00
2018-05-11T08:42:59.678Z,25.10
2018-05-11T08:47:04.210Z,25.00
2018-05-11T08:51:07.746Z,24.80
2018-05-11T08:55:10.284Z,24.30
2018-05-11T08:59:13.599Z,23.90
2018-05-11T09:03:16.119Z,23.80
2018-05-11T09:07:19.447Z,24.00
2018-05-11T09:11:23.730Z,24.20
2018-05-11T09:15:28.224Z,24.10
2018-05-11T09:19:30.748Z,24.50
2018-05-11T09:23:34.053Z,24.10
2018-05-11T09:27:40.615Z,24.00
2018-05-11T09:31:43.208Z,23.90
2018-05-11T09:35:45.727Z,24.20
2018-05-11T09:39:52.180Z,24.50
2018-05-11T09:43:54.674Z,24.80
2018-05-11T09:47:58.065Z,24.30
2018-05-11T09:52:00.600Z,24.20
2018-05-11T09:56:03.196Z,23.60
2018-05-11T10:00:05.807Z,23.30
2018-05-11T10:04:08.439Z,23.40
2018-05-11T10:08:10.980Z,23.90
2018-05-11T10:12:15.458Z,24.00
2018-05-11T10:16:18.954Z,23.70
2018-05-11T10:20:22.278Z,23.90
2018-05-11T10:24:32.230Z,23.90
2018-05-11T10:28:34.786Z,23.50
2018-05-11T10:32:37.297Z,23.70
2018-05-11T10:36:40.313Z,23.50
2018-05-11T10:40:42.954Z,23.40
2018-05-11T10:44:46.491Z,23.40
2018-05-11T10:48:49.109Z,23.60
2018-05-11T10:52:51.588Z,23.50
2018-05-11T10:56:55.892Z,23.30
2018-05-11T11:00:58.568Z,23.30
2018-05-11T11:05:02.015Z,23.60
2018-05-11T11:09:05.270Z,23.80
2018-05-11T11:13:07.778Z,23.60
2018-05-11T11:17:10.311Z,23.70
2018-05-11T11:21:12.831Z,23.50
2018-05-11T11:25:15.755Z,23.30
2018-05-11T11:29:19.290Z,23.20
2018-05-11T11:33:32.269Z,23.30
2018-05-11T11:37:34.797Z,23.30
2018-05-11T11:41:38.238Z,22.90
2018-05-11T11:45:41.518Z,22.60
2018-05-11T11:49:44.148Z,22.60
2018-05-11T11:53:46.669Z,22.40
2018-05-11T11:57:49.224Z,22.30
2018-05-11T12:01:51.777Z,22.40
2018-05-11T12:05:54.346Z,22.30
2018-05-11T12:10:03.911Z,22.20
2018-05-11T12:14:06.543Z,22.00
2018-05-11T12:18:09.059Z,22.00
2018-05-11T12:22:12.366Z,22.30
2018-05-11T12:26:14.962Z,22.20
2018-05-11T12:30:18.586Z,21.90
2018-05-11T12:34:23.069Z,21.80
2018-05-11T12:38:30.483Z,21.60
2018-05-11T12:42:32.995Z,21.50
2018-05-11T12:46:35.556Z,21.60
2018-05-11T12:50:38.102Z,21.40
2018-05-11T12:54:40.654Z,21.40
2018-05-11T12:58:43.163Z,21.60
2018-05-11T13:02:46.922Z,21.60
2018-05-11T13:06:49.438Z,21.70
2018-05-11T13:10:53.066Z,21.40
2018-05-11T13:14:55.586Z,21.10
2018-05-11T13:18:58.156Z,21.10
2018-05-11T13:23:00.678Z,21.10
2018-05-11T13:27:03.222Z,21.20
2018-05-11T13:31:06.537Z,21.00
2018-05-11T13:35:09.180Z,21.00
2018-05-11T13:39:11.723Z,21.10
2018-05-11T13:43:15.825Z,21.10
2018-05-11T13:47:18.403Z,21.00
2018-05-11T13:51:21.711Z,21.20
2018-05-11T13:55:31.065Z,21.10
2018-05-11T13:59:33.661Z,21.10
2018-05-11T14:03:38.262Z,21.20
2018-05-11T14:07:47.625Z,20.70
2018-05-11T14:11:50.931Z,20.70
2018-05-11T14:15:56.509Z,20.60
2018-05-11T14:19:59.046Z,20.60
2018-05-11T14:24:01.592Z,20.70
2018-05-11T14:28:04.142Z,20.60
2018-05-11T14:32:07.569Z,20.70
2018-05-11T14:36:10.906Z,20.80
2018-05-11T14:40:13.458Z,20.80
2018-05-11T14:44:15.978Z,20.90
2018-05-11T14:48:18.627Z,20.90
2018-05-11T14:52:21.170Z,20.90
2018-05-11T14:56:31.446Z,20.90
2018-05-11T15:00:34.737Z,21.00
2018-05-11T15:04:37.289Z,21.00
2018-05-11T15:08:39.808Z,20.90
2018-05-11T15:12:42.358Z,20.90
2018-05-11T15:16:46.864Z,20.80
2018-05-11T15:20:49.428Z,20.50
2018-05-11T15:24:52.910Z,20.40
2018-05-11T15:28:55.484Z,20.20
2018-05-11T15:32:58.028Z,20.30
2018-05-11T15:37:01.580Z,20.60
2018-05-11T15:41:05.068Z,20.60
2018-05-11T15:45:07.954Z,20.70
2018-05-11T15:49:11.503Z,20.90
2018-05-11T15:53:14.077Z,20.80
2018-05-11T15:57:21.119Z,20.80
2018-05-11T16:01:25.811Z,20.70
2018-05-11T16:05:28.493Z,20.80
2018-05-11T16:09:34.203Z,20.90
2018-05-11T16:13:43.739Z,20.60
2018-05-11T16:17:47.302Z,20.70
2018-05-11T16:21:50.646Z,20.50
2018-05-11T16:25:53.211Z,20.50
2018-05-11T16:29:55.745Z,20.50
2018-05-11T16:33:59.078Z,20.50
2018-05-11T16:38:01.626Z,20.50
2018-05-11T16:42:04.692Z,20.60
2018-05-11T16:46:07.999Z,20.80
2018-05-11T16:50:11.712Z,20.80
2018-05-11T16:54:17.181Z,20.80
2018-05-11T16:58:19.834Z,20.80
2018-05-11T17:02:24.320Z,20.70
2018-05-11T17:06:26.887Z,20.50
2018-05-11T17:10:29.485Z,20.50
2018-05-11T17:14:33.137Z,20.50
2018-05-11T17:18:36.620Z,20.40
2018-05-11T17:22:45.732Z,20.30
2018-05-11T17:26:48.221Z,20.30
2018-05-11T17:30:50.898Z,20.20
2018-05-11T17:34:59.353Z,20.20
2018-05-11T17:39:12.819Z,20.10
2018-05-11T17:43:16.165Z,20.10
2018-05-11T17:47:18.962Z,20.10
2018-05-11T17:51:26.757Z,19.90
2018-05-11T17:55:34.504Z,19.90
2018-05-11T17:59:38.020Z,19.90
2018-05-11T18:03:40.590Z,19.80
2018-05-11T18:07:47.066Z,19.70
2018-05-11T18:11:49.712Z,19.80
2018-05-11T18:15:52.412Z,19.80
2018-05-11T18:19:55.043Z,19.80
2018-05-11T18:24:05.659Z,19.70
2018-05-11T18:28:12.276Z,19.70
2018-05-11T18:32:19.488Z,19.70
2018-05-11T18:36:28.037Z,19.70
2018-05-11T18:40:31.342Z,19.60
2018-05-11T18:44:34.886Z,19.60
2018-05-11T18:48:38.372Z,19.50
2018-05-11T18:52:40.970Z,19.50
2018-05-11T18:56:43.506Z,19.40
2018-05-11T19:00:48.313Z,19.20
2018-05-11T19:04:50.843Z,19.20
2018-05-11T19:08:54.571Z,19.10
2018-05-11T19:12:58.040Z,19.00
2018-05-11T19:17:02.700Z,18.80
2018-05-11T19:21:06.235Z,18.60
2018-05-11T19:25:09.659Z,18.10
2018-05-11T19:29:12.978Z,17.80
2018-05-11T19:33:18.746Z,17.70
2018-05-11T19:37:21.273Z,17.60
2018-05-11T19:41:25.617Z,17.20
2018-05-11T19:45:28.931Z,17.00
2018-05-11T19:49:31.496Z,16.90
2018-05-11T19:53:45.273Z,16.80
2018-05-11T19:57:52.185Z,16.90
2018-05-11T20:01:54.730Z,16.70
2018-05-11T20:05:58.075Z,16.50
2018-05-11T20:10:04.019Z,16.40
2018-05-11T20:14:08.683Z,16.30
2018-05-11T20:18:11.302Z,16.10
2018-05-11T20:22:14.723Z,16.00
2018-05-11T20:26:17.263Z,16.00
2018-05-11T20:30:19.855Z,15.90
2018-05-11T20:34:23.182Z,16.00
2018-05-11T20:38:25.740Z,15.90
2018-05-11T20:42:28.289Z,16.00
2018-05-11T20:46:30.875Z,15.80
2018-05-11T20:50:35.496Z,15.60
2018-05-11T20:54:38.042Z,15.80
2018-05-11T20:58:54.667Z,15.70
2018-05-11T21:02:57.211Z,15.60
2018-05-11T21:06:59.765Z,15.40
2018-05-11T21:11:03.716Z,15.40
2018-05-11T21:15:06.246Z,15.30
2018-05-11T21:19:08.939Z,15.20
2018-05-11T21:23:14.182Z,15.20
2018-05-11T21:27:18.802Z,15.10
2018-05-11T21:31:22.230Z,15.10
2018-05-11T21:35:25.971Z,14.90
2018-05-11T21:39:28.519Z,14.80
2018-05-11T21:43:33.414Z,14.70
2018-05-11T21:47:36.003Z,14.70
2018-05-11T21:51:38.692Z,14.60
2018-05-11T21:55:41.210Z,14.50
2018-05-11T21:59:44.526Z,14.60
2018-05-11T22:03:47.812Z,14.50
2018-05-11T22:07:58.666Z,14.30
2018-05-11T22:12:01.216Z,14.30
2018-05-11T22:16:07.230Z,14.30
2018-05-11T22:20:09.747Z,14.30
2018-05-11T22:24:15.004Z,14.20
2018-05-11T22:28:17.520Z,14.20
2018-05-11T22:32:24.822Z,14.30
2018-05-11T22:36:27.343Z,14.20
2018-05-11T22:40:30.750Z,14.10
2018-05-11T22:44:33.271Z,14.10
2018-05-11T22:48:38.123Z,14.00
2018-05-11T22:52:40.634Z,13.90
2018-05-11T22:56:43.183Z,13.90
2018-05-11T23:00:45.731Z,13.90
2018-05-11T23:04:49.051Z,13.90
2018-05-11T23:08:51.563Z,13.90
2018-05-11T23:12:55.175Z,13.70
2018-05-11T23:16:57.691Z,13.80
2018-05-11T23:21:00.231Z,13.80
2018-05-11T23:25:03.509Z,13.90
2018-05-11T23:29:06.076Z,13.80
2018-05-11T23:33:08.604Z,13.70
2018-05-11T23:37:11.267Z,13.50
2018-05-11T23:41:14.550Z,13.20
2018-05-11T23:45:18.097Z,13.10
2018-05-11T23:49:20.611Z,13.10
2018-05-11T23:53:23.234Z,13.30
2018-05-11T23:57:30.075Z,13.30
